Time,TemperatureF,DewpointF,PressureIn,WindDirection,WindDirectionDegrees,WindSpeedMPH,WindSpeedGustMPH,Humidity,HourlyPrecipIn,Conditions,Clouds,dailyrainin,SoftwareType,DateUTC
2013-03-25 18:47:00,74.7,28.4,-100.00,SW,214,8.1,8.7,18,-99.99,,,-99.99,WSDL version 423,2013-03-26 01:47:00,
2013-03-25 18:49:00,74.5,28.3,29.88,SSW,194,6.9,8.7,18,-99.99,,,-99.99,WSDL version 423,2013-03-26 01:49:00,
2013-03-25 18:54:00,74.1,27.9,29.88,South,177,7.0,10.1,18,-99.99,,,-99.99,WSDL version 423,2013-03-26 01:54:00,
2013-03-25 18:57:00,73.8,27.7,29.88,South,185,5.4,10.1,18,-99.99,,,-99.99,WSDL version 423,2013-03-26 01:57:00,
2013-03-25 19:02:00,73.3,28.1,29.88,SSW,195,3.7,8.3,19,-99.99,,,-99.99,WSDL version 423,2013-03-26 02:02:00,
2013-03-25 19:07:00,72.6,28.0,29.88,SSE,158,2.7,7.2,19,-99.99,,,-99.99,WSDL version 423,2013-03-26 02:07:00,
2013-03-25 19:13:00,72.0,27.5,29.88,South,170,4.5,8.3,19,-99.99,,,-99.99,WSDL version 423,2013-03-26 02:13:00,
2013-03-25 19:19:00,71.6,27.2,29.88,South,175,4.7,8.3,19,-99.99,,,-99.99,WSDL version 423,2013-03-26 02:19:00,
2013-03-25 19:24:00,71.1,26.8,29.88,South,177,5.3,8.3,19,-99.99,,,-99.99,WSDL version 423,2013-03-26 02:24:00,
2013-03-25 19:29:00,70.8,26.6,29.88,South,175,5.0,8.3,19,-99.99,,,-99.99,WSDL version 423,2013-03-26 02:29:00,
2013-03-25 19:34:00,70.9,26.6,29.88,South,180,5.7,7.6,19,-99.99,,,-99.99,WSDL version 423,2013-03-26 02:34:00,
2013-03-25 19:39:00,70.6,26.4,29.88,South,183,4.9,7.6,19,-99.99,,,-99.99,WSDL version 423,2013-03-26 02:39:00,
2013-03-25 19:44:00,70.4,26.2,29.88,SSE,163,4.7,6.7,19,-99.99,,,-99.99,WSDL version 423,2013-03-26 02:44:00,
2013-03-25 19:50:00,69.7,26.3,29.88,South,173,3.6,6.3,20,-99.99,,,-99.99,WSDL version 423,2013-03-26 02:50:00,
2013-03-25 19:55:00,69.0,26.3,29.88,South,174,3.4,6.3,20,-99.99,,,-99.99,WSDL version 423,2013-03-26 02:55:00,
2013-03-25 20:00:00,68.9,23.6,29.88,SSW,203,5.0,8.7,20,-99.99,,,-99.99,WSDL version 423,2013-03-26 03:00:00,
2013-03-25 20:05:00,69.0,23.2,29.88,South,180,4.8,8.7,17,-99.99,,,-99.99,WSDL version 423,2013-03-26 03:05:00,
2013-03-25 20:10:00,68.7,22.8,29.88,South,190,4.0,8.7,17,-99.99,,,-99.99,WSDL version 423,2013-03-26 03:10:00,
2013-03-25 20:15:00,68.5,24.6,29.91,SW,228,7.1,10.5,20,-99.99,,,-99.99,WSDL version 423,2013-03-26 03:15:00,
2013-03-25 20:20:00,68.5,25.9,29.91,SSW,205,7.9,10.5,20,-99.99,,,-99.99,WSDL version 423,2013-03-26 03:20:00,
2013-03-25 20:26:00,68.5,25.9,29.91,SW,217,5.8,10.5,20,-99.99,,,-99.99,WSDL version 423,2013-03-26 03:26:00,
2013-03-25 20:32:00,68.2,25.7,29.91,SW,223,5.8,10.5,20,-99.99,,,-99.99,WSDL version 423,2013-03-26 03:32:00,
2013-03-25 20:38:00,68.2,25.6,29.91,SSW,208,5.8,8.7,20,-99.99,,,-99.99,WSDL version 423,2013-03-26 03:38:00,
2013-03-25 20:43:00,67.9,25.3,29.91,SW,222,5.3,8.7,20,-99.99,,,-99.99,WSDL version 423,2013-03-26 03:43:00,
2013-03-25 20:48:00,67.6,25.1,29.91,SSW,203,5.3,10.1,20,-99.99,,,-99.99,WSDL version 423,2013-03-26 03:48:00,
2013-03-25 20:53:00,67.5,25.0,29.91,SW,222,4.0,10.1,20,-99.99,,,-99.99,WSDL version 423,2013-03-26 03:53:00,
2013-03-25 20:58:00,67.1,24.7,29.91,SSW,213,1.5,7.6,20,-99.99,,,-99.99,WSDL version 423,2013-03-26 03:58:00,
2013-03-25 21:01:00,66.8,24.5,29.91,SW,225,3.4,7.6,20,-99.99,,,-99.99,WSDL version 423,2013-03-26 04:01:00,
2013-03-25 21:02:00,66.7,24.4,29.91,SW,218,3.7,7.6,20,-99.99,,,-99.99,WSDL version 423,2013-03-26 04:02:00,
2013-03-25 21:03:00,66.6,24.3,29.91,SW,214,3.7,7.6,20,-99.99,,,-99.99,WSDL version 423,2013-03-26 04:03:00,
2013-03-25 21:08:00,66.5,24.2,29.91,SW,231,5.6,8.3,20,-99.99,,,-99.99,WSDL version 423,2013-03-26 04:08:00,
2013-03-25 21:13:00,66.6,24.3,29.91,SSW,205,6.3,8.7,20,-99.99,,,-99.99,WSDL version 423,2013-03-26 04:13:00,
2013-03-25 21:18:00,67.0,24.6,29.91,SW,215,6.7,9.6,20,-99.99,,,-99.99,WSDL version 423,2013-03-26 04:18:00,
2013-03-25 21:23:00,67.2,23.5,29.91,SW,214,7.2,11.0,17,-99.99,,,-99.99,WSDL version 423,2013-03-26 04:23:00,
2013-03-25 21:28:00,67.4,21.1,29.91,SSW,208,6.8,11.0,17,-99.99,,,-99.99,WSDL version 423,2013-03-26 04:28:00,
2013-03-25 21:33:00,67.3,21.0,29.91,SSW,208,5.8,10.5,17,-99.99,,,-99.99,WSDL version 423,2013-03-26 04:33:00,
2013-03-25 21:38:00,67.2,21.0,29.91,SSW,210,6.5,12.3,17,-99.99,,,-99.99,WSDL version 423,2013-03-26 04:38:00,
2013-03-25 21:43:00,67.2,20.9,29.91,SW,215,7.6,12.8,17,-99.99,,,-99.99,WSDL version 423,2013-03-26 04:43:00,
2013-03-25 21:48:00,67.0,20.8,29.94,SSW,213,8.0,12.8,17,-99.99,,,-99.99,WSDL version 423,2013-03-26 04:48:00,
2013-03-25 21:53:00,66.7,20.5,29.94,SSW,193,6.1,10.5,17,-99.99,,,-99.99,WSDL version 423,2013-03-26 04:53:00,
2013-03-25 21:58:00,66.0,20.6,29.94,SSW,198,4.7,9.6,18,-99.99,,,-99.99,WSDL version 423,2013-03-26 04:58:00,
2013-03-25 22:03:00,65.1,20.6,29.94,SW,214,5.6,8.7,18,-99.99,,,-99.99,WSDL version 423,2013-03-26 05:03:00,
2013-03-25 22:08:00,64.4,20.0,29.94,SSW,203,6.1,8.3,18,-99.99,,,-99.99,WSDL version 423,2013-03-26 05:08:00,
2013-03-25 22:13:00,64.6,20.2,29.94,SW,218,6.3,8.3,18,-99.99,,,-99.99,WSDL version 423,2013-03-26 05:13:00,
2013-03-25 22:18:00,64.9,20.4,29.94,WSW,239,4.5,8.3,18,-99.99,,,-99.99,WSDL version 423,2013-03-26 05:18:00,
2013-03-25 22:23:00,64.6,20.1,29.94,WSW,243,4.5,8.1,18,-99.99,,,-99.99,WSDL version 423,2013-03-26 05:23:00,
2013-03-25 22:28:00,64.2,19.9,29.94,SW,222,5.0,8.1,18,-99.99,,,-99.99,WSDL version 423,2013-03-26 05:28:00,
2013-03-25 22:33:00,64.0,19.7,29.94,SW,225,5.2,8.1,18,-99.99,,,-99.99,WSDL version 423,2013-03-26 05:33:00,
2013-03-25 22:38:00,64.3,19.9,29.94,SW,215,6.0,10.5,18,-99.99,,,-99.99,WSDL version 423,2013-03-26 05:38:00,